sensor_id;sensor_type;location;lat;lon;timestamp;P1;durP1;ratioP1;P2;durP2;ratioP2
9042;SDS011;4556;49.150;8.808;2022-07-10T00:07:25;4.37;;;3.97;;
9042;SDS011;4556;49.150;8.808;2022-07-10T00:10:01;4.47;;;4.07;;
9042;SDS011;4556;49.150;8.808;2022-07-10T00:12:33;4.37;;;3.90;;
9042;SDS011;4556;49.150;8.808;2022-07-10T00:15:16;4.87;;;4.10;;
9042;SDS011;4556;49.150;8.808;2022-07-10T00:18:07;5.27;;;4.80;;
9042;SDS011;4556;49.150;8.808;2022-07-10T00:21:02;5.87;;;5.23;;
9042;SDS011;4556;49.150;8.808;2022-07-10T00:23:51;6.40;;;5.80;;
9042;SDS011;4556;49.150;8.808;2022-07-10T00:29:34;6.07;;;5.27;;
9042;SDS011;4556;49.150;8.808;2022-07-10T00:32:13;5.57;;;5.07;;
9042;SDS011;4556;49.150;8.808;2022-07-10T00:34:40;6.60;;;5.60;;
9042;SDS011;4556;49.150;8.808;2022-07-10T00:37:07;5.20;;;4.70;;
9042;SDS011;4556;49.150;8.808;2022-07-10T00:39:36;5.33;;;4.83;;
9042;SDS011;4556;49.150;8.808;2022-07-10T00:42:06;5.17;;;4.73;;
9042;SDS011;4556;49.150;8.808;2022-07-10T00:44:34;6.80;;;6.07;;
9042;SDS011;4556;49.150;8.808;2022-07-10T00:47:01;6.40;;;5.13;;
9042;SDS011;4556;49.150;8.808;2022-07-10T00:49:29;6.83;;;5.10;;
9042;SDS011;4556;49.150;8.808;2022-07-10T00:51:56;6.57;;;5.90;;
9042;SDS011;4556;49.150;8.808;2022-07-10T00:54:25;5.40;;;4.90;;
9042;SDS011;4556;49.150;8.808;2022-07-10T00:56:54;7.17;;;6.53;;
9042;SDS011;4556;49.150;8.808;2022-07-10T00:59:22;6.20;;;5.60;;
9042;SDS011;4556;49.150;8.808;2022-07-10T01:01:51;7.23;;;6.43;;
9042;SDS011;4556;49.150;8.808;2022-07-10T01:04:18;7.57;;;6.87;;
9042;SDS011;4556;49.150;8.808;2022-07-10T01:06:45;9.40;;;8.50;;
9042;SDS011;4556;49.150;8.808;2022-07-10T01:09:12;10.80;;;9.30;;
9042;SDS011;4556;49.150;8.808;2022-07-10T01:11:39;8.80;;;7.93;;
9042;SDS011;4556;49.150;8.808;2022-07-10T01:14:08;8.30;;;7.37;;
9042;SDS011;4556;49.150;8.808;2022-07-10T01:16:36;9.43;;;8.43;;
9042;SDS011;4556;49.150;8.808;2022-07-10T01:19:03;9.63;;;8.50;;
9042;SDS011;4556;49.150;8.808;2022-07-10T01:21:33;10.37;;;8.33;;
9042;SDS011;4556;49.150;8.808;2022-07-10T01:24:03;8.60;;;7.73;;
9042;SDS011;4556;49.150;8.808;2022-07-10T01:26:32;8.70;;;7.90;;
9042;SDS011;4556;49.150;8.808;2022-07-10T01:29:02;8.77;;;7.33;;
9042;SDS011;4556;49.150;8.808;2022-07-10T01:31:30;7.83;;;7.13;;
9042;SDS011;4556;49.150;8.808;2022-07-10T01:33:58;7.90;;;6.90;;
9042;SDS011;4556;49.150;8.808;2022-07-10T01:36:28;7.60;;;6.90;;
9042;SDS011;4556;49.150;8.808;2022-07-10T01:38:57;10.07;;;7.63;;
9042;SDS011;4556;49.150;8.808;2022-07-10T01:41:28;9.17;;;7.73;;
9042;SDS011;4556;49.150;8.808;2022-07-10T01:43:55;8.93;;;7.97;;
9042;SDS011;4556;49.150;8.808;2022-07-10T01:46:22;8.80;;;8.00;;
9042;SDS011;4556;49.150;8.808;2022-07-10T01:48:50;8.97;;;8.07;;
9042;SDS011;4556;49.150;8.808;2022-07-10T01:51:18;9.80;;;8.90;;
9042;SDS011;4556;49.150;8.808;2022-07-10T01:53:45;9.53;;;8.20;;
9042;SDS011;4556;49.150;8.808;2022-07-10T01:56:14;9.33;;;8.53;;
9042;SDS011;4556;49.150;8.808;2022-07-10T01:58:42;9.60;;;8.70;;
9042;SDS011;4556;49.150;8.808;2022-07-10T02:01:10;9.13;;;8.23;;
9042;SDS011;4556;49.150;8.808;2022-07-10T02:03:37;9.37;;;8.47;;
9042;SDS011;4556;49.150;8.808;2022-07-10T02:06:39;10.10;;;9.10;;
9042;SDS011;4556;49.150;8.808;2022-07-10T02:09:12;8.87;;;8.13;;
9042;SDS011;4556;49.150;8.808;2022-07-10T02:11:41;9.43;;;8.53;;
9042;SDS011;4556;49.150;8.808;2022-07-10T02:14:08;10.37;;;9.30;;
9042;SDS011;4556;49.150;8.808;2022-07-10T02:16:35;10.07;;;8.73;;
9042;SDS011;4556;49.150;8.808;2022-07-10T02:44:49;10.23;;;9.30;;
9042;SDS011;4556;49.150;8.808;2022-07-10T02:47:16;9.67;;;8.73;;
9042;SDS011;4556;49.150;8.808;2022-07-10T02:49:46;10.43;;;9.40;;
9042;SDS011;4556;49.150;8.808;2022-07-10T02:52:19;10.47;;;9.47;;
9042;SDS011;4556;49.150;8.808;2022-07-10T02:54:52;9.37;;;8.23;;
9042;SDS011;4556;49.150;8.808;2022-07-10T02:57:29;9.67;;;8.70;;
9042;SDS011;4556;49.150;8.808;2022-07-10T03:00:08;11.87;;;8.90;;
9042;SDS011;4556;49.150;8.808;2022-07-10T03:02:36;9.00;;;8.10;;
9042;SDS011;4556;49.150;8.808;2022-07-10T03:05:04;10.33;;;8.83;;
9042;SDS011;4556;49.150;8.808;2022-07-10T03:07:34;9.20;;;8.40;;
9042;SDS011;4556;49.150;8.808;2022-07-10T03:10:01;8.83;;;8.03;;
9042;SDS011;4556;49.150;8.808;2022-07-10T03:12:29;9.43;;;8.10;;
9042;SDS011;4556;49.150;8.808;2022-07-10T03:14:58;10.17;;;8.60;;
9042;SDS011;4556;49.150;8.808;2022-07-10T03:20:11;7.97;;;7.20;;
9042;SDS011;4556;49.150;8.808;2022-07-10T03:22:38;8.53;;;7.63;;
9042;SDS011;4556;49.150;8.808;2022-07-10T03:25:07;7.73;;;6.97;;
9042;SDS011;4556;49.150;8.808;2022-07-10T03:27:38;7.40;;;6.67;;
9042;SDS011;4556;49.150;8.808;2022-07-10T03:30:06;8.07;;;7.27;;
9042;SDS011;4556;49.150;8.808;2022-07-10T03:32:37;6.83;;;6.23;;
9042;SDS011;4556;49.150;8.808;2022-07-10T03:35:09;6.93;;;6.27;;
9042;SDS011;4556;49.150;8.808;2022-07-10T03:37:36;7.40;;;6.20;;
9042;SDS011;4556;49.150;8.808;2022-07-10T03:40:04;6.87;;;5.60;;
9042;SDS011;4556;49.150;8.808;2022-07-10T03:42:31;7.27;;;5.90;;
9042;SDS011;4556;49.150;8.808;2022-07-10T03:44:58;9.50;;;6.50;;
9042;SDS011;4556;49.150;8.808;2022-07-10T03:47:25;5.93;;;5.37;;
9042;SDS011;4556;49.150;8.808;2022-07-10T03:49:52;6.63;;;5.57;;
9042;SDS011;4556;49.150;8.808;2022-07-10T03:52:21;6.40;;;5.30;;
9042;SDS011;4556;49.150;8.808;2022-07-10T03:54:53;6.13;;;5.47;;
9042;SDS011;4556;49.150;8.808;2022-07-10T03:57:43;7.60;;;5.43;;
9042;SDS011;4556;49.150;8.808;2022-07-10T04:00:21;7.13;;;4.80;;
9042;SDS011;4556;49.150;8.808;2022-07-10T04:03:20;5.63;;;5.07;;
9042;SDS011;4556;49.150;8.808;2022-07-10T04:06:45;6.90;;;4.43;;
9042;SDS011;4556;49.150;8.808;2022-07-10T04:10:24;7.60;;;4.33;;
9042;SDS011;4556;49.150;8.808;2022-07-10T04:12:59;7.40;;;4.47;;
9042;SDS011;4556;49.150;8.808;2022-07-10T04:15:27;4.80;;;4.23;;
9042;SDS011;4556;49.150;8.808;2022-07-10T04:17:57;5.67;;;4.30;;
9042;SDS011;4556;49.150;8.808;2022-07-10T04:20:25;4.83;;;4.00;;
9042;SDS011;4556;49.150;8.808;2022-07-10T04:22:53;5.87;;;4.00;;
9042;SDS011;4556;49.150;8.808;2022-07-10T04:25:20;7.77;;;3.97;;
9042;SDS011;4556;49.150;8.808;2022-07-10T04:27:51;6.87;;;4.37;;
9042;SDS011;4556;49.150;8.808;2022-07-10T04:30:19;5.00;;;4.10;;
9042;SDS011;4556;49.150;8.808;2022-07-10T04:32:46;5.47;;;3.73;;
9042;SDS011;4556;49.150;8.808;2022-07-10T04:35:13;6.73;;;4.10;;
9042;SDS011;4556;49.150;8.808;2022-07-10T04:37:40;9.37;;;3.83;;
9042;SDS011;4556;49.150;8.808;2022-07-10T04:40:08;4.07;;;3.10;;
9042;SDS011;4556;49.150;8.808;2022-07-10T04:42:37;4.73;;;2.40;;
9042;SDS011;4556;49.150;8.808;2022-07-10T04:45:05;5.60;;;2.50;;
9042;SDS011;4556;49.150;8.808;2022-07-10T04:47:32;7.67;;;2.13;;
9042;SDS011;4556;49.150;8.808;2022-07-10T04:50:00;2.87;;;2.00;;
9042;SDS011;4556;49.150;8.808;2022-07-10T04:52:27;6.70;;;1.67;;
9042;SDS011;4556;49.150;8.808;2022-07-10T04:54:54;5.30;;;1.87;;
9042;SDS011;4556;49.150;8.808;2022-07-10T04:57:21;3.67;;;1.77;;
9042;SDS011;4556;49.150;8.808;2022-07-10T04:59:52;5.23;;;1.90;;
9042;SDS011;4556;49.150;8.808;2022-07-10T05:02:21;4.57;;;2.00;;
9042;SDS011;4556;49.150;8.808;2022-07-10T05:05:14;3.43;;;2.20;;
9042;SDS011;4556;49.150;8.808;2022-07-10T05:07:44;3.23;;;1.43;;
9042;SDS011;4556;49.150;8.808;2022-07-10T05:10:11;4.50;;;1.60;;
9042;SDS011;4556;49.150;8.808;2022-07-10T05:12:38;4.33;;;1.60;;
9042;SDS011;4556;49.150;8.808;2022-07-10T05:15:10;3.23;;;1.50;;
9042;SDS011;4556;49.150;8.808;2022-07-10T05:17:37;2.23;;;1.50;;
9042;SDS011;4556;49.150;8.808;2022-07-10T05:20:06;2.07;;;1.27;;
9042;SDS011;4556;49.150;8.808;2022-07-10T05:22:36;4.33;;;1.50;;
9042;SDS011;4556;49.150;8.808;2022-07-10T05:25:04;3.20;;;1.30;;
9042;SDS011;4556;49.150;8.808;2022-07-10T05:27:47;4.47;;;1.13;;
9042;SDS011;4556;49.150;8.808;2022-07-10T05:32:53;3.90;;;1.33;;
9042;SDS011;4556;49.150;8.808;2022-07-10T05:35:20;2.57;;;1.37;;
9042;SDS011;4556;49.150;8.808;2022-07-10T05:37:47;5.90;;;1.53;;
9042;SDS011;4556;49.150;8.808;2022-07-10T05:40:15;2.63;;;0.90;;
9042;SDS011;4556;49.150;8.808;2022-07-10T05:42:56;2.80;;;1.07;;
9042;SDS011;4556;49.150;8.808;2022-07-10T05:45:24;2.47;;;1.03;;
9042;SDS011;4556;49.150;8.808;2022-07-10T05:47:52;3.73;;;0.87;;
9042;SDS011;4556;49.150;8.808;2022-07-10T05:50:21;3.13;;;0.97;;
9042;SDS011;4556;49.150;8.808;2022-07-10T05:52:48;5.23;;;1.10;;
9042;SDS011;4556;49.150;8.808;2022-07-10T05:55:16;6.47;;;1.17;;
9042;SDS011;4556;49.150;8.808;2022-07-10T05:57:43;4.03;;;1.00;;
9042;SDS011;4556;49.150;8.808;2022-07-10T06:00:16;4.10;;;0.93;;
9042;SDS011;4556;49.150;8.808;2022-07-10T06:02:43;2.03;;;1.13;;
9042;SDS011;4556;49.150;8.808;2022-07-10T06:05:12;5.03;;;1.13;;
9042;SDS011;4556;49.150;8.808;2022-07-10T06:07:39;3.97;;;1.10;;
9042;SDS011;4556;49.150;8.808;2022-07-10T06:10:06;2.03;;;1.07;;
9042;SDS011;4556;49.150;8.808;2022-07-10T06:12:33;2.27;;;1.10;;
9042;SDS011;4556;49.150;8.808;2022-07-10T06:15:02;4.27;;;1.10;;
9042;SDS011;4556;49.150;8.808;2022-07-10T06:17:29;3.63;;;1.40;;
9042;SDS011;4556;49.150;8.808;2022-07-10T06:19:56;2.90;;;1.07;;
9042;SDS011;4556;49.150;8.808;2022-07-10T06:22:25;3.13;;;1.10;;
9042;SDS011;4556;49.150;8.808;2022-07-10T06:24:59;2.47;;;1.10;;
9042;SDS011;4556;49.150;8.808;2022-07-10T06:27:26;2.30;;;1.00;;
9042;SDS011;4556;49.150;8.808;2022-07-10T06:29:53;3.93;;;1.00;;
9042;SDS011;4556;49.150;8.808;2022-07-10T06:32:21;1.30;;;0.80;;
9042;SDS011;4556;49.150;8.808;2022-07-10T06:34:49;3.57;;;1.23;;
9042;SDS011;4556;49.150;8.808;2022-07-10T06:37:16;4.93;;;1.17;;
9042;SDS011;4556;49.150;8.808;2022-07-10T06:39:45;3.37;;;1.10;;
9042;SDS011;4556;49.150;8.808;2022-07-10T06:42:22;3.97;;;1.20;;
9042;SDS011;4556;49.150;8.808;2022-07-10T06:44:50;3.93;;;1.23;;
9042;SDS011;4556;49.150;8.808;2022-07-10T06:47:18;1.27;;;0.87;;
9042;SDS011;4556;49.150;8.808;2022-07-10T06:50:03;2.47;;;1.13;;
9042;SDS011;4556;49.150;8.808;2022-07-10T06:52:31;3.10;;;0.97;;
9042;SDS011;4556;49.150;8.808;2022-07-10T06:55:00;2.53;;;0.87;;
9042;SDS011;4556;49.150;8.808;2022-07-10T06:59:58;3.07;;;1.00;;
9042;SDS011;4556;49.150;8.808;2022-07-10T07:02:28;1.80;;;0.90;;
9042;SDS011;4556;49.150;8.808;2022-07-10T07:05:14;4.77;;;0.90;;
9042;SDS011;4556;49.150;8.808;2022-07-10T07:07:54;4.23;;;1.00;;
9042;SDS011;4556;49.150;8.808;2022-07-10T07:10:26;2.53;;;0.90;;
9042;SDS011;4556;49.150;8.808;2022-07-10T07:12:54;3.87;;;1.00;;
9042;SDS011;4556;49.150;8.808;2022-07-10T07:15:22;2.17;;;0.70;;
9042;SDS011;4556;49.150;8.808;2022-07-10T07:17:51;3.17;;;1.10;;
9042;SDS011;4556;49.150;8.808;2022-07-10T07:20:36;2.47;;;1.10;;
9042;SDS011;4556;49.150;8.808;2022-07-10T07:23:21;2.67;;;0.80;;
9042;SDS011;4556;49.150;8.808;2022-07-10T07:25:51;2.80;;;0.73;;
9042;SDS011;4556;49.150;8.808;2022-07-10T07:28:19;3.03;;;0.90;;
9042;SDS011;4556;49.150;8.808;2022-07-10T07:30:46;7.93;;;1.33;;
9042;SDS011;4556;49.150;8.808;2022-07-10T07:33:14;3.53;;;1.00;;
9042;SDS011;4556;49.150;8.808;2022-07-10T07:35:41;3.07;;;1.03;;
9042;SDS011;4556;49.150;8.808;2022-07-10T07:38:29;4.57;;;1.00;;
9042;SDS011;4556;49.150;8.808;2022-07-10T07:41:13;3.73;;;0.90;;
9042;SDS011;4556;49.150;8.808;2022-07-10T07:43:40;3.20;;;0.90;;
9042;SDS011;4556;49.150;8.808;2022-07-10T07:46:07;4.10;;;0.90;;
9042;SDS011;4556;49.150;8.808;2022-07-10T07:48:34;4.03;;;0.93;;
9042;SDS011;4556;49.150;8.808;2022-07-10T07:51:03;6.07;;;1.30;;
9042;SDS011;4556;49.150;8.808;2022-07-10T07:53:33;3.13;;;1.20;;
9042;SDS011;4556;49.150;8.808;2022-07-10T07:56:00;3.33;;;1.07;;
9042;SDS011;4556;49.150;8.808;2022-07-10T07:58:29;5.23;;;1.30;;
9042;SDS011;4556;49.150;8.808;2022-07-10T08:00:57;3.53;;;0.90;;
9042;SDS011;4556;49.150;8.808;2022-07-10T08:03:24;4.43;;;1.10;;
9042;SDS011;4556;49.150;8.808;2022-07-10T08:05:51;3.77;;;1.07;;
9042;SDS011;4556;49.150;8.808;2022-07-10T08:08:26;3.67;;;0.90;;
9042;SDS011;4556;49.150;8.808;2022-07-10T08:10:57;1.83;;;0.90;;
9042;SDS011;4556;49.150;8.808;2022-07-10T08:13:24;4.20;;;1.10;;
9042;SDS011;4556;49.150;8.808;2022-07-10T08:15:52;1.90;;;0.97;;
9042;SDS011;4556;49.150;8.808;2022-07-10T08:18:20;3.73;;;1.07;;
9042;SDS011;4556;49.150;8.808;2022-07-10T08:20:47;4.57;;;1.00;;
9042;SDS011;4556;49.150;8.808;2022-07-10T08:23:25;2.03;;;1.00;;
9042;SDS011;4556;49.150;8.808;2022-07-10T08:25:53;3.63;;;1.30;;
9042;SDS011;4556;49.150;8.808;2022-07-10T08:28:20;6.83;;;1.40;;
9042;SDS011;4556;49.150;8.808;2022-07-10T08:30:48;4.23;;;1.50;;
9042;SDS011;4556;49.150;8.808;2022-07-10T08:33:17;3.60;;;1.10;;
9042;SDS011;4556;49.150;8.808;2022-07-10T08:35:44;5.60;;;1.40;;
9042;SDS011;4556;49.150;8.808;2022-07-10T08:38:11;3.60;;;1.17;;
9042;SDS011;4556;49.150;8.808;2022-07-10T08:40:46;3.13;;;1.10;;
9042;SDS011;4556;49.150;8.808;2022-07-10T08:43:13;3.77;;;1.20;;
9042;SDS011;4556;49.150;8.808;2022-07-10T08:45:42;3.40;;;0.90;;
9042;SDS011;4556;49.150;8.808;2022-07-10T08:48:11;1.47;;;0.90;;
9042;SDS011;4556;49.150;8.808;2022-07-10T08:50:42;4.50;;;1.30;;
9042;SDS011;4556;49.150;8.808;2022-07-10T08:53:15;2.57;;;0.77;;
9042;SDS011;4556;49.150;8.808;2022-07-10T08:55:48;2.17;;;1.00;;
9042;SDS011;4556;49.150;8.808;2022-07-10T08:58:16;2.97;;;1.20;;
9042;SDS011;4556;49.150;8.808;2022-07-10T09:00:46;2.13;;;1.03;;
9042;SDS011;4556;49.150;8.808;2022-07-10T09:03:13;3.20;;;1.17;;
9042;SDS011;4556;49.150;8.808;2022-07-10T09:05:41;4.63;;;1.07;;
9042;SDS011;4556;49.150;8.808;2022-07-10T09:08:20;1.77;;;0.80;;
9042;SDS011;4556;49.150;8.808;2022-07-10T09:10:48;3.37;;;0.87;;
9042;SDS011;4556;49.150;8.808;2022-07-10T09:13:16;2.67;;;1.00;;
9042;SDS011;4556;49.150;8.808;2022-07-10T09:15:47;3.50;;;0.80;;
9042;SDS011;4556;49.150;8.808;2022-07-10T09:18:18;1.60;;;0.73;;
9042;SDS011;4556;49.150;8.808;2022-07-10T09:20:47;1.70;;;0.77;;
9042;SDS011;4556;49.150;8.808;2022-07-10T09:23:15;3.17;;;0.80;;
9042;SDS011;4556;49.150;8.808;2022-07-10T09:25:43;2.67;;;0.80;;
9042;SDS011;4556;49.150;8.808;2022-07-10T09:28:12;1.63;;;0.70;;
9042;SDS011;4556;49.150;8.808;2022-07-10T09:30:42;1.27;;;0.60;;
9042;SDS011;4556;49.150;8.808;2022-07-10T09:33:25;2.17;;;0.90;;
9042;SDS011;4556;49.150;8.808;2022-07-10T09:36:02;1.97;;;0.90;;
9042;SDS011;4556;49.150;8.808;2022-07-10T09:38:51;2.87;;;0.70;;
9042;SDS011;4556;49.150;8.808;2022-07-10T09:41:20;2.07;;;0.83;;
9042;SDS011;4556;49.150;8.808;2022-07-10T09:43:48;2.93;;;0.70;;
9042;SDS011;4556;49.150;8.808;2022-07-10T09:46:17;2.17;;;0.60;;
9042;SDS011;4556;49.150;8.808;2022-07-10T09:48:46;2.43;;;0.73;;
9042;SDS011;4556;49.150;8.808;2022-07-10T09:51:15;2.70;;;0.70;;
9042;SDS011;4556;49.150;8.808;2022-07-10T09:53:42;3.00;;;0.70;;
9042;SDS011;4556;49.150;8.808;2022-07-10T09:56:11;3.67;;;0.73;;
9042;SDS011;4556;49.150;8.808;2022-07-10T09:58:41;2.73;;;0.80;;
9042;SDS011;4556;49.150;8.808;2022-07-10T10:01:11;3.27;;;0.73;;
9042;SDS011;4556;49.150;8.808;2022-07-10T10:03:38;2.13;;;0.90;;
9042;SDS011;4556;49.150;8.808;2022-07-10T10:06:10;1.47;;;0.60;;
9042;SDS011;4556;49.150;8.808;2022-07-10T10:08:48;3.30;;;0.87;;
9042;SDS011;4556;49.150;8.808;2022-07-10T10:13:51;2.00;;;0.60;;
9042;SDS011;4556;49.150;8.808;2022-07-10T10:16:19;3.97;;;0.77;;
9042;SDS011;4556;49.150;8.808;2022-07-10T10:18:46;4.70;;;1.13;;
9042;SDS011;4556;49.150;8.808;2022-07-10T10:21:34;2.50;;;0.70;;
9042;SDS011;4556;49.150;8.808;2022-07-10T10:24:04;4.20;;;0.80;;
9042;SDS011;4556;49.150;8.808;2022-07-10T10:26:32;1.27;;;0.50;;
9042;SDS011;4556;49.150;8.808;2022-07-10T10:29:00;1.73;;;0.53;;
9042;SDS011;4556;49.150;8.808;2022-07-10T10:31:29;1.03;;;0.60;;
9042;SDS011;4556;49.150;8.808;2022-07-10T10:33:57;2.57;;;0.60;;
9042;SDS011;4556;49.150;8.808;2022-07-10T10:36:44;3.10;;;0.80;;
9042;SDS011;4556;49.150;8.808;2022-07-10T10:39:15;2.47;;;0.87;;
9042;SDS011;4556;49.150;8.808;2022-07-10T10:41:48;1.33;;;0.60;;
9042;SDS011;4556;49.150;8.808;2022-07-10T10:44:20;3.00;;;0.77;;
9042;SDS011;4556;49.150;8.808;2022-07-10T10:46:57;2.97;;;0.70;;
9042;SDS011;4556;49.150;8.808;2022-07-10T10:49:50;1.80;;;0.60;;
9042;SDS011;4556;49.150;8.808;2022-07-10T10:52:33;2.23;;;0.50;;
9042;SDS011;4556;49.150;8.808;2022-07-10T10:55:07;3.37;;;0.80;;
9042;SDS011;4556;49.150;8.808;2022-07-10T10:57:43;1.80;;;0.73;;
9042;SDS011;4556;49.150;8.808;2022-07-10T11:00:13;2.73;;;0.63;;
9042;SDS011;4556;49.150;8.808;2022-07-10T11:03:11;4.30;;;0.80;;
9042;SDS011;4556;49.150;8.808;2022-07-10T11:05:45;5.37;;;0.80;;
9042;SDS011;4556;49.150;8.808;2022-07-10T11:08:13;1.23;;;0.50;;
9042;SDS011;4556;49.150;8.808;2022-07-10T11:11:02;2.23;;;0.50;;
9042;SDS011;4556;49.150;8.808;2022-07-10T11:14:07;3.27;;;0.80;;
9042;SDS011;4556;49.150;8.808;2022-07-10T11:16:37;1.77;;;0.60;;
9042;SDS011;4556;49.150;8.808;2022-07-10T11:19:12;3.00;;;0.70;;
9042;SDS011;4556;49.150;8.808;2022-07-10T11:21:49;1.17;;;0.70;;
9042;SDS011;4556;49.150;8.808;2022-07-10T11:24:33;2.13;;;0.60;;
9042;SDS011;4556;49.150;8.808;2022-07-10T11:27:19;1.47;;;0.60;;
9042;SDS011;4556;49.150;8.808;2022-07-10T11:29:56;2.43;;;0.80;;
9042;SDS011;4556;49.150;8.808;2022-07-10T11:32:24;2.23;;;0.53;;
9042;SDS011;4556;49.150;8.808;2022-07-10T11:34:51;2.73;;;0.80;;
9042;SDS011;4556;49.150;8.808;2022-07-10T11:37:18;2.63;;;0.63;;
9042;SDS011;4556;49.150;8.808;2022-07-10T11:39:45;1.50;;;0.70;;
9042;SDS011;4556;49.150;8.808;2022-07-10T11:42:12;2.10;;;0.70;;
9042;SDS011;4556;49.150;8.808;2022-07-10T11:44:40;2.70;;;0.70;;
9042;SDS011;4556;49.150;8.808;2022-07-10T11:47:10;2.40;;;0.70;;
9042;SDS011;4556;49.150;8.808;2022-07-10T11:49:43;0.90;;;0.50;;
9042;SDS011;4556;49.150;8.808;2022-07-10T11:52:12;2.43;;;0.50;;
9042;SDS011;4556;49.150;8.808;2022-07-10T11:54:39;2.47;;;0.87;;
9042;SDS011;4556;49.150;8.808;2022-07-10T11:57:07;2.97;;;0.43;;
9042;SDS011;4556;49.150;8.808;2022-07-10T11:59:35;1.73;;;0.60;;
9042;SDS011;4556;49.150;8.808;2022-07-10T12:02:05;1.73;;;0.60;;
9042;SDS011;4556;49.150;8.808;2022-07-10T12:04:32;2.53;;;0.60;;
9042;SDS011;4556;49.150;8.808;2022-07-10T12:07:01;2.87;;;0.93;;
9042;SDS011;4556;49.150;8.808;2022-07-10T12:09:30;1.67;;;0.40;;
9042;SDS011;4556;49.150;8.808;2022-07-10T12:12:04;2.33;;;0.67;;
9042;SDS011;4556;49.150;8.808;2022-07-10T12:14:34;2.57;;;0.50;;
9042;SDS011;4556;49.150;8.808;2022-07-10T12:17:00;3.20;;;0.87;;
9042;SDS011;4556;49.150;8.808;2022-07-10T12:19:38;1.80;;;0.70;;
9042;SDS011;4556;49.150;8.808;2022-07-10T12:22:05;3.57;;;0.50;;
9042;SDS011;4556;49.150;8.808;2022-07-10T12:24:33;3.37;;;0.80;;
9042;SDS011;4556;49.150;8.808;2022-07-10T12:27:01;3.97;;;0.63;;
9042;SDS011;4556;49.150;8.808;2022-07-10T12:29:29;2.00;;;0.80;;
9042;SDS011;4556;49.150;8.808;2022-07-10T12:31:57;1.93;;;0.70;;
9042;SDS011;4556;49.150;8.808;2022-07-10T12:34:35;2.47;;;0.93;;
9042;SDS011;4556;49.150;8.808;2022-07-10T12:37:08;3.10;;;0.70;;
9042;SDS011;4556;49.150;8.808;2022-07-10T12:39:36;5.07;;;1.00;;
9042;SDS011;4556;49.150;8.808;2022-07-10T12:42:05;2.13;;;0.67;;
9042;SDS011;4556;49.150;8.808;2022-07-10T12:44:33;0.87;;;0.40;;
9042;SDS011;4556;49.150;8.808;2022-07-10T12:47:06;2.70;;;0.60;;
9042;SDS011;4556;49.150;8.808;2022-07-10T12:49:49;1.93;;;0.70;;
9042;SDS011;4556;49.150;8.808;2022-07-10T12:52:22;3.17;;;0.63;;
9042;SDS011;4556;49.150;8.808;2022-07-10T12:55:04;2.50;;;0.40;;
9042;SDS011;4556;49.150;8.808;2022-07-10T12:57:50;1.77;;;0.60;;
9042;SDS011;4556;49.150;8.808;2022-07-10T13:00:18;2.00;;;0.70;;
9042;SDS011;4556;49.150;8.808;2022-07-10T13:02:47;1.87;;;0.60;;
9042;SDS011;4556;49.150;8.808;2022-07-10T13:05:27;2.53;;;0.70;;
9042;SDS011;4556;49.150;8.808;2022-07-10T13:08:09;0.97;;;0.50;;
9042;SDS011;4556;49.150;8.808;2022-07-10T13:10:43;1.83;;;0.70;;
9042;SDS011;4556;49.150;8.808;2022-07-10T13:13:11;2.20;;;0.80;;
9042;SDS011;4556;49.150;8.808;2022-07-10T13:15:39;2.40;;;0.80;;
9042;SDS011;4556;49.150;8.808;2022-07-10T13:18:12;2.23;;;1.07;;
9042;SDS011;4556;49.150;8.808;2022-07-10T13:20:39;5.80;;;0.70;;
9042;SDS011;4556;49.150;8.808;2022-07-10T13:23:06;2.70;;;0.73;;
9042;SDS011;4556;49.150;8.808;2022-07-10T13:25:36;2.20;;;0.70;;
9042;SDS011;4556;49.150;8.808;2022-07-10T13:28:04;1.13;;;0.50;;
9042;SDS011;4556;49.150;8.808;2022-07-10T13:30:31;2.57;;;0.53;;
9042;SDS011;4556;49.150;8.808;2022-07-10T13:32:59;1.60;;;0.60;;
9042;SDS011;4556;49.150;8.808;2022-07-10T13:35:27;2.30;;;1.00;;
9042;SDS011;4556;49.150;8.808;2022-07-10T13:37:55;1.77;;;0.70;;
9042;SDS011;4556;49.150;8.808;2022-07-10T13:40:26;2.23;;;0.70;;
9042;SDS011;4556;49.150;8.808;2022-07-10T13:42:53;2.87;;;0.80;;
9042;SDS011;4556;49.150;8.808;2022-07-10T13:45:21;4.03;;;0.70;;
9042;SDS011;4556;49.150;8.808;2022-07-10T13:47:50;1.83;;;0.50;;
9042;SDS011;4556;49.150;8.808;2022-07-10T13:50:18;3.17;;;0.63;;
9042;SDS011;4556;49.150;8.808;2022-07-10T13:52:45;1.47;;;0.60;;
9042;SDS011;4556;49.150;8.808;2022-07-10T13:55:12;4.10;;;0.80;;
9042;SDS011;4556;49.150;8.808;2022-07-10T13:57:41;3.37;;;0.90;;
9042;SDS011;4556;49.150;8.808;2022-07-10T14:00:08;3.47;;;0.80;;
9042;SDS011;4556;49.150;8.808;2022-07-10T14:02:36;2.30;;;0.83;;
9042;SDS011;4556;49.150;8.808;2022-07-10T14:05:04;1.73;;;0.80;;
9042;SDS011;4556;49.150;8.808;2022-07-10T14:07:33;1.70;;;0.80;;
9042;SDS011;4556;49.150;8.808;2022-07-10T14:10:00;2.87;;;0.83;;
9042;SDS011;4556;49.150;8.808;2022-07-10T14:12:27;2.63;;;0.80;;
9042;SDS011;4556;49.150;8.808;2022-07-10T14:14:56;1.17;;;0.70;;
9042;SDS011;4556;49.150;8.808;2022-07-10T14:17:23;1.13;;;0.53;;
9042;SDS011;4556;49.150;8.808;2022-07-10T14:19:50;0.97;;;0.60;;
9042;SDS011;4556;49.150;8.808;2022-07-10T14:22:20;2.97;;;0.80;;
9042;SDS011;4556;49.150;8.808;2022-07-10T14:24:48;5.77;;;0.90;;
9042;SDS011;4556;49.150;8.808;2022-07-10T14:27:15;5.73;;;0.90;;
9042;SDS011;4556;49.150;8.808;2022-07-10T14:29:42;3.73;;;0.70;;
9042;SDS011;4556;49.150;8.808;2022-07-10T14:32:11;4.40;;;1.00;;
9042;SDS011;4556;49.150;8.808;2022-07-10T14:34:40;2.77;;;0.70;;
9042;SDS011;4556;49.150;8.808;2022-07-10T14:37:07;1.40;;;0.60;;
9042;SDS011;4556;49.150;8.808;2022-07-10T14:39:34;2.37;;;0.70;;
9042;SDS011;4556;49.150;8.808;2022-07-10T14:42:01;2.03;;;0.80;;
9042;SDS011;4556;49.150;8.808;2022-07-10T14:44:30;3.63;;;0.90;;
9042;SDS011;4556;49.150;8.808;2022-07-10T14:46:59;4.53;;;0.80;;
9042;SDS011;4556;49.150;8.808;2022-07-10T14:49:27;3.07;;;0.80;;
9042;SDS011;4556;49.150;8.808;2022-07-10T14:51:54;3.87;;;0.93;;
9042;SDS011;4556;49.150;8.808;2022-07-10T14:54:21;1.83;;;0.77;;
9042;SDS011;4556;49.150;8.808;2022-07-10T14:56:48;2.97;;;0.70;;
9042;SDS011;4556;49.150;8.808;2022-07-10T14:59:15;2.67;;;0.70;;
9042;SDS011;4556;49.150;8.808;2022-07-10T15:01:43;2.30;;;0.90;;
9042;SDS011;4556;49.150;8.808;2022-07-10T15:04:10;2.17;;;0.93;;
9042;SDS011;4556;49.150;8.808;2022-07-10T15:06:38;2.63;;;0.80;;
9042;SDS011;4556;49.150;8.808;2022-07-10T15:09:05;3.90;;;0.90;;
9042;SDS011;4556;49.150;8.808;2022-07-10T15:11:32;6.00;;;0.70;;
9042;SDS011;4556;49.150;8.808;2022-07-10T15:14:01;2.27;;;0.70;;
9042;SDS011;4556;49.150;8.808;2022-07-10T15:16:29;3.40;;;0.80;;
9042;SDS011;4556;49.150;8.808;2022-07-10T15:18:56;1.53;;;0.67;;
9042;SDS011;4556;49.150;8.808;2022-07-10T15:21:26;3.10;;;0.90;;
9042;SDS011;4556;49.150;8.808;2022-07-10T15:23:55;4.60;;;1.00;;
9042;SDS011;4556;49.150;8.808;2022-07-10T15:26:22;3.43;;;1.00;;
9042;SDS011;4556;49.150;8.808;2022-07-10T15:28:49;3.40;;;1.00;;
9042;SDS011;4556;49.150;8.808;2022-07-10T15:31:16;3.27;;;0.80;;
9042;SDS011;4556;49.150;8.808;2022-07-10T15:33:43;2.67;;;0.87;;
9042;SDS011;4556;49.150;8.808;2022-07-10T15:36:10;2.60;;;0.90;;
9042;SDS011;4556;49.150;8.808;2022-07-10T15:38:37;2.93;;;0.87;;
9042;SDS011;4556;49.150;8.808;2022-07-10T15:41:06;2.00;;;0.87;;
9042;SDS011;4556;49.150;8.808;2022-07-10T15:43:37;3.60;;;0.80;;
9042;SDS011;4556;49.150;8.808;2022-07-10T15:46:04;4.33;;;0.80;;
9042;SDS011;4556;49.150;8.808;2022-07-10T15:48:32;2.03;;;0.93;;
9042;SDS011;4556;49.150;8.808;2022-07-10T15:51:02;4.83;;;1.27;;
9042;SDS011;4556;49.150;8.808;2022-07-10T15:53:29;3.23;;;0.87;;
9042;SDS011;4556;49.150;8.808;2022-07-10T15:55:56;6.50;;;1.30;;
9042;SDS011;4556;49.150;8.808;2022-07-10T15:58:25;3.00;;;1.10;;
9042;SDS011;4556;49.150;8.808;2022-07-10T16:00:52;3.10;;;1.10;;
9042;SDS011;4556;49.150;8.808;2022-07-10T16:03:19;2.10;;;0.60;;
9042;SDS011;4556;49.150;8.808;2022-07-10T16:05:46;4.90;;;1.13;;
9042;SDS011;4556;49.150;8.808;2022-07-10T16:08:13;2.73;;;0.80;;
9042;SDS011;4556;49.150;8.808;2022-07-10T16:10:43;4.77;;;0.80;;
9042;SDS011;4556;49.150;8.808;2022-07-10T16:13:10;3.50;;;1.00;;
9042;SDS011;4556;49.150;8.808;2022-07-10T16:15:42;2.70;;;0.90;;
9042;SDS011;4556;49.150;8.808;2022-07-10T16:18:09;3.70;;;1.00;;
9042;SDS011;4556;49.150;8.808;2022-07-10T16:20:37;1.73;;;0.80;;
9042;SDS011;4556;49.150;8.808;2022-07-10T16:23:04;2.93;;;0.90;;